Time;durP1;ratioP1;P1;durP2;ratioP2;P2;SDS_P1;SDS_P2;PMS_P1;PMS_P2;Temp;Humidity;BMP_temperature;BMP_pressure;BME280_temperature;BME280_humidity;BME280_pressure;Samples;Min_cycle;Max_cycle;Signal;HPM_P1;HPM_P2
2024/02/21 00:04:28;;;;;;;14.60;4.10;;;;;;;6.52;89.40;100940.56;126862;1303;635735;-72
2024/02/21 00:08:22;;;;;;;16.30;4.80;;;;;;;6.50;89.52;100939.00;127996;1302;127850;-72
2024/02/21 00:12:25;;;;;;;11.50;4.80;;;;;;;6.51;89.70;100940.41;127351;1287;114992;-72
2024/02/21 00:20:25;;;;;;;;;;;;;;;;;;;;;
2024/02/21 00:24:18;;;;;;;;;;;;;;;;;;;;;
2024/02/21 00:32:55;;;;;;;16.00;4.30;;;;;;;6.48;90.09;100927.31;127693;1285;128880;-72
2024/02/21 00:36:57;;;;;;;7.40;4.00;;;;;;;6.49;90.18;100929.26;126441;1292;114833;-72
2024/02/21 00:40:48;;;;;;;10.50;3.80;;;;;;;6.50;90.17;100923.38;121794;1299;5518215;-72
2024/02/21 00:44:48;;;;;;;14.90;3.90;;;;;;;6.50;90.23;100915.23;125296;1308;114980;-72
2024/02/21 00:48:50;;;;;;;9.20;3.70;;;;;;;6.50;90.21;100913.81;125487;1302;114954;-72
2024/02/21 00:57:16;;;;;;;10.00;3.30;;;;;;;6.52;90.42;100909.14;126275;1299;638639;-73
2024/02/21 01:01:19;;;;;;;11.90;3.10;;;;;;;6.50;90.36;100902.64;128096;1299;128829;-73
2024/02/21 01:05:22;;;;;;;9.00;3.10;;;;;;;6.48;90.33;100900.00;127410;1289;114962;-72
2024/02/21 01:09:28;;;;;;;12.60;3.40;;;;;;;6.45;90.22;100894.76;122642;1297;5439031;-73
2024/02/21 01:13:27;;;;;;;;;;;;;;;;;;;;;
2024/02/21 01:22:00;;;;;;;;;;;;;;;;;;;;;
2024/02/21 01:26:05;;;;;;;9.30;3.50;;;;;;;6.36;90.08;100879.89;127957;1302;129073;-73
2024/02/21 01:30:07;;;;;;;10.10;3.20;;;;;;;6.34;90.28;100876.56;127126;1290;115005;-72
2024/02/21 01:34:08;;;;;;;10.90;3.00;;;;;;;6.36;90.29;100875.27;121986;1302;5437187;-73
2024/02/21 01:38:11;;;;;;;9.90;2.10;;;;;;;6.37;90.34;100870.81;124671;1308;114790;-73
2024/02/21 01:50:51;;;;;;;11.30;3.60;;;;;;;6.47;90.65;100861.88;128322;1278;129124;-73
2024/02/21 01:55:17;;;;;;;10.00;4.00;;;;;;;6.50;90.83;100858.27;128436;1277;114778;-71
2024/02/21 01:58:54;;;;;;;10.80;3.90;;;;;;;6.53;91.01;100852.70;123784;1303;5434115;-72
2024/02/21 02:03:01;;;;;;;11.70;4.00;;;;;;;6.56;91.34;100850.31;126738;1311;115235;-72
2024/02/21 02:07:02;;;;;;;15.40;4.10;;;;;;;6.58;91.30;100844.41;125338;1304;114954;-72
2024/02/21 02:11:04;;;;;;;10.00;4.30;;;;;;;6.59;91.37;100839.25;124479;1332;114879;-72
2024/02/21 02:19:31;;;;;;;6.60;3.80;;;;;;;6.65;91.49;100820.63;126197;1299;635680;-73
2024/02/21 02:23:34;;;;;;;10.00;4.50;;;;;;;6.63;91.42;100821.59;127972;1283;128615;-71
2024/02/21 02:27:37;;;;;;;12.90;4.50;;;;;;;6.61;91.39;100819.50;127777;1297;114946;-72
2024/02/21 02:31:37;;;;;;;;;;;;;;;;;;;;;
2024/02/21 02:39:51;;;;;;;9.60;3.90;;;;;;;6.55;91.76;100808.81;126209;1314;114900;-73
2024/02/21 02:43:53;;;;;;;11.00;3.60;;;;;;;6.53;91.54;100805.48;125743;1302;114962;-71
2024/02/21 02:47:34;;;;;;;;;;;;;;;6.51;91.63;100806.08;125019;1312;129823;-73
2024/02/21 03:00:04;;;;;;;8.00;3.60;;;;;;;6.38;91.37;100795.20;127802;1287;127878;-73
2024/02/21 03:04:06;;;;;;;10.40;3.70;;;;;;;6.32;91.10;100792.52;126858;1292;114854;-73
2024/02/21 03:08:10;;;;;;;6.90;3.20;;;;;;;6.23;91.18;100790.25;122389;1298;5501048;-74
2024/02/21 03:19:59;;;;;;;;;;;;;;;;;;;;;
2024/02/21 03:32:32;;;;;;;12.50;4.10;;;;;;;5.99;91.49;100778.36;127579;1286;128700;-72
2024/02/21 03:40:42;;;;;;;10.10;4.40;;;;;;;5.96;91.85;100776.48;121899;1300;5421651;-72
2024/02/21 03:44:43;;;;;;;9.30;4.40;;;;;;;5.97;92.07;100770.95;125123;1311;114952;-72
2024/02/21 03:53:19;;;;;;;9.40;4.40;;;;;;;6.04;92.34;100764.09;125976;1300;640248;-73
2024/02/21 03:57:19;;;;;;;;;;;;;;;;;;;;;
2024/02/21 04:05:21;;;;;;;11.20;4.10;;;;;;;6.05;92.31;100760.89;121747;1312;5426398;-72
2024/02/21 04:13:48;;;;;;;10.70;5.00;;;;;;;6.04;92.21;100758.07;126032;1308;636966;-73
2024/02/21 04:17:50;;;;;;;10.70;4.20;;;;;;;6.01;92.34;100758.11;127636;1281;128898;-70
2024/02/21 04:29:35;;;;;;;;;;;;;;;;;;;;;
2024/02/21 04:33:36;;;;;;;10.00;4.00;;;;;;;6.04;92.58;100735.56;125840;1314;114938;-73
2024/02/21 04:42:03;;;;;;;13.70;4.90;;;;;;;6.06;92.38;100729.12;125894;1304;636079;-73
2024/02/21 04:50:13;;;;;;;13.60;5.50;;;;;;;6.04;92.64;100726.48;126602;1313;114923;-72
2024/02/21 04:54:08;;;;;;;10.50;4.50;;;;;;;6.05;92.51;100722.73;121671;1307;5415418;-74
2024/02/21 04:58:08;;;;;;;11.60;5.10;;;;;;;6.05;92.40;100721.86;124205;1334;115235;-71
2024/02/21 05:06:30;;;;;;;15.90;5.00;;;;;;;6.09;92.45;100715.38;126666;1298;635757;-72
2024/02/21 05:10:32;;;;;;;11.80;4.90;;;;;;;6.09;92.41;100709.71;127500;1284;127836;-72
2024/02/21 05:14:36;;;;;;;12.80;4.50;;;;;;;6.09;92.44;100704.20;126004;1300;115052;-72
2024/02/21 05:18:20;;;;;;;;;;;;;;;;;;;;;
2024/02/21 05:22:21;;;;;;;12.80;4.60;;;;;;;6.13;92.63;100702.52;123830;1318;115201;-71
2024/02/21 05:30:49;;;;;;;13.10;5.10;;;;;;;6.17;92.49;100697.80;126304;1296;636953;-71
2024/02/21 05:34:51;;;;;;;11.00;6.10;;;;;;;6.15;92.58;100697.84;127964;1302;127954;-72
2024/02/21 05:38:55;;;;;;;13.00;5.70;;;;;;;6.15;92.30;100697.67;127652;1286;114830;-72
2024/02/21 05:42:57;;;;;;;13.40;5.70;;;;;;;6.15;92.45;100696.98;122361;1301;5424121;-72
2024/02/21 05:46:57;;;;;;;14.70;7.10;;;;;;;6.15;92.32;100692.90;125258;1307;114880;-72
2024/02/21 05:50:59;;;;;;;15.70;6.40;;;;;;;6.15;92.25;100690.21;125182;1325;114869;-72
2024/02/21 05:59:32;;;;;;;23.00;7.60;;;;;;;6.22;92.56;100681.55;126510;1292;636741;-71
2024/02/21 06:03:33;;;;;;;15.10;7.10;;;;;;;6.23;92.36;100683.65;127456;1307;128669;-71
2024/02/21 06:07:41;;;;;;;14.40;6.60;;;;;;;6.26;92.35;100680.56;126729;1296;114930;-71
2024/02/21 06:11:34;;;;;;;;;;;;;;;;;;;;;
2024/02/21 06:15:08;;;;;;;;;;;;;;;6.31;92.23;100683.44;124292;1324;114899;-71
2024/02/21 06:23:35;;;;;;;18.60;7.40;;;;;;;6.44;92.19;100678.33;126008;1299;638896;-72
2024/02/21 06:27:30;;;;;;;17.90;6.60;;;;;;;6.52;92.31;100679.00;128886;1272;127592;-73
2024/02/21 06:31:23;;;;;;;21.00;7.10;;;;;;;6.62;92.25;100676.08;128251;1279;114967;-73
2024/02/21 06:35:24;;;;;;;;;;;;;;;;;;;;;
2024/02/21 06:39:32;;;;;;;18.30;6.50;;;;;;;6.78;91.82;100672.42;126100;1298;114898;-71
2024/02/21 06:43:24;;;;;;;13.90;5.80;;;;;;;6.83;92.01;100672.11;125940;1300;114981;-71
2024/02/21 06:47:24;;;;;;;12.00;4.60;;;;;;;6.88;91.71;100672.52;125456;1304;129787;-72
2024/02/21 06:51:23;;;;;;;;;;;;;;;;;;;;;
2024/02/21 06:59:48;;;;;;;18.20;6.90;;;;;;;7.04;91.53;100674.20;126424;1291;636439;-72
2024/02/21 07:03:51;;;;;;;12.80;5.40;;;;;;;7.09;91.22;100669.61;128894;1294;128981;-72
2024/02/21 07:07:53;;;;;;;14.80;5.80;;;;;;;7.17;91.37;100666.00;128160;1281;114982;-71
2024/02/21 07:11:49;;;;;;;12.70;5.40;;;;;;;7.27;91.18;100668.55;123133;1290;5498134;-71
2024/02/21 07:15:50;;;;;;;16.50;8.30;;;;;;;7.37;90.95;100665.95;126575;1291;114948;-71
2024/02/21 07:19:35;;;;;;;20.50;9.10;;;;;;;7.48;91.05;100666.33;125707;1305;114976;-72
2024/02/21 07:23:35;;;;;;;17.70;9.30;;;;;;;7.59;90.79;100659.94;125712;1323;127668;-72
2024/02/21 07:31:39;;;;;;;;;;;;;;;;;;;;;
2024/02/21 07:35:44;;;;;;;14.40;6.20;;;;;;;7.95;90.82;100650.45;128871;1278;129093;-71
2024/02/21 07:43:51;;;;;;;12.80;5.90;;;;;;;8.15;90.56;100649.41;124687;1301;5435254;-71
2024/02/21 07:47:52;;;;;;;12.80;6.80;;;;;;;8.23;90.52;100647.90;124441;1314;114935;-70
2024/02/21 07:56:20;;;;;;;14.20;5.50;;;;;;;8.38;90.27;100646.30;126542;1292;638571;-72
2024/02/21 08:00:22;;;;;;;15.40;5.90;;;;;;;8.43;90.01;100642.92;127714;1299;128015;-72
2024/02/21 08:04:17;;;;;;;12.60;6.20;;;;;;;8.52;90.15;100635.35;126828;1287;115452;-72
2024/02/21 08:08:21;;;;;;;11.90;5.40;;;;;;;8.64;90.35;100628.16;123064;1289;5426536;-73
2024/02/21 08:12:20;;;;;;;;;;;;;;;;;;;;;
2024/02/21 08:24:55;;;;;;;9.50;4.40;;;;;;;8.86;89.64;100622.02;128858;1295;128545;-71
2024/02/21 08:29:22;;;;;;;10.30;4.90;;;;;;;8.90;89.74;100615.27;128288;1277;115280;-72
2024/02/21 08:32:58;;;;;;;;;;;;;;;;;;;;;
2024/02/21 08:36:58;;;;;;;;;;;;;;;;;;;;;
2024/02/21 08:49:28;;;;;;;13.80;5.30;;;;;;;9.27;89.55;100605.86;126085;1298;637055;-72
2024/02/21 08:53:29;;;;;;;11.60;5.20;;;;;;;9.37;89.37;100603.34;128713;1273;127872;-72
2024/02/21 08:57:36;;;;;;;11.70;5.10;;;;;;;9.51;89.21;100601.35;127813;1284;115450;-72
2024/02/21 09:01:35;;;;;;;12.40;5.50;;;;;;;9.63;88.82;100599.42;123124;1301;5403762;-72
2024/02/21 09:05:36;;;;;;;14.60;6.30;;;;;;;9.71;88.81;100604.27;125646;1320;115019;-72
2024/02/21 09:10:02;;;;;;;13.30;5.40;;;;;;;9.78;88.60;100604.88;124471;1332;114814;-71
2024/02/21 09:18:06;;;;;;;12.20;4.70;;;;;;;9.91;87.95;100595.08;126416;1292;638316;-72
2024/02/21 09:22:09;;;;;;;13.30;4.30;;;;;;;9.89;87.64;100589.27;128307;1278;128946;-72
2024/02/21 09:26:04;;;;;;;;;;;;;;;;;;;;;
2024/02/21 09:30:08;;;;;;;13.40;4.00;;;;;;;9.85;87.06;100590.34;122849;1292;5419075;-73
2024/02/21 09:42:30;;;;;;;16.20;8.60;;;;;;;9.89;86.71;100589.79;126185;1314;635935;-64
2024/02/21 09:46:32;;;;;;;19.50;10.20;;;;;;;9.95;86.49;100587.05;128321;1279;128830;-62
2024/02/21 09:50:25;;;;;;;37.40;22.80;;;;;;;10.06;86.89;100587.85;126618;1308;114951;-64
2024/02/21 09:54:29;;;;;;;18.80;10.30;;;;;;;10.25;86.88;100577.93;122873;1292;5421367;-63
2024/02/21 09:58:31;;;;;;;18.10;11.30;;;;;;;10.38;86.30;100575.23;125754;1317;115022;-64
2024/02/21 10:11:02;;;;;;;;;;;;;;;;;;;;;
2024/02/21 10:15:07;;;;;;;;;;;;;;;;;;;;;
2024/02/21 10:23:13;;;;;;;7.40;6.00;;;;;;;10.09;85.38;100580.56;121554;1305;5604849;-63
2024/02/21 10:30:52;;;;;;;13.00;8.60;;;;;;;9.96;85.53;100577.20;125626;1295;635250;-65
2024/02/21 10:34:05;;;;;;;12.10;6.10;;;;;;;9.88;85.30;100575.05;128455;1277;128463;-63
2024/02/21 10:37:56;;;;;;;15.90;8.70;;;;;;;9.83;85.15;100579.54;128730;1274;114772;-64
2024/02/21 10:41:59;;;;;;;16.00;7.80;;;;;;;9.79;85.32;100581.81;128918;1275;114741;-64
2024/02/21 10:46:02;;;;;;;42.20;26.80;;;;;;;9.81;85.54;100574.63;123516;1284;5470729;-64
2024/02/21 10:58:05;;;;;;;;;;;;;;;;;;;;;
2024/02/21 11:02:08;;;;;;;18.90;9.50;;;;;;;9.94;85.34;100541.94;125168;1318;114991;-64
2024/02/21 11:10:07;;;;;;;;;;;;;;;;;;;;;
2024/02/21 11:14:00;;;;;;;19.20;12.30;;;;;;;10.06;85.46;100530.05;129857;1282;128568;-63
2024/02/21 11:17:44;;;;;;;19.20;13.60;;;;;;;10.07;85.15;100525.88;129190;1268;116147;-66
2024/02/21 11:21:44;;;;;;;;;;;;;;;;;;;;;
2024/02/21 11:25:40;;;;;;;;;;;;;;;;;;;;;
2024/02/21 11:29:38;;;;;;;;;;;;;;;;;;;;;
2024/02/21 11:33:57;;;;;;;21.60;11.20;;;;;;;10.20;84.85;100505.14;126725;1292;115700;-64
2024/02/21 11:38:22;;;;;;;25.20;12.80;;;;;;;10.31;84.97;100495.54;126037;1295;129913;-65
2024/02/21 11:42:02;;;;;;;14.00;10.50;;;;;;;10.46;84.88;100483.45;126227;1298;114959;-65
2024/02/21 11:46:03;;;;;;;11.40;8.30;;;;;;;10.66;84.71;100479.16;125674;1301;115039;-65
2024/02/21 11:54:22;;;;;;;23.00;13.00;;;;;;;10.86;84.48;100474.98;126159;1295;635978;-64
2024/02/21 11:58:15;;;;;;;17.80;11.30;;;;;;;10.87;83.97;100475.14;128166;1279;127774;-66
2024/02/21 12:02:17;;;;;;;;;;;;;;;;;;;;;
2024/02/21 12:05:59;;;;;;;;;;;;;;;;;;;;;
2024/02/21 12:14:09;;;;;;;14.10;9.40;;;;;;;10.90;83.19;100458.38;126067;1301;114889;-63
2024/02/21 12:18:02;;;;;;;15.00;9.20;;;;;;;10.91;83.35;100457.95;125082;1324;114895;-64
2024/02/21 12:21:54;;;;;;;15.50;10.20;;;;;;;10.96;82.96;100443.92;124938;1320;129754;-65
2024/02/21 12:25:57;;;;;;;21.10;11.50;;;;;;;10.96;83.05;100430.38;124314;1311;115164;-71
2024/02/21 12:34:14;;;;;;;42.80;22.00;;;;;;;11.06;82.85;100425.44;126728;1294;636670;-71
2024/02/21 12:37:39;;;;;;;35.10;20.00;;;;;;;11.00;82.55;100418.73;128860;1275;128995;-69
2024/02/21 12:40:44;;;;;;;42.50;25.70;;;;;;;10.93;82.27;100410.50;128847;1285;114837;-71
2024/02/21 12:44:43;;;;;;;;;;;;;;;;;;;;;
2024/02/21 12:48:47;;;;;;;47.20;26.60;;;;;;;10.89;82.47;100398.00;123415;1298;5433851;-69
2024/02/21 12:52:28;;;;;;;19.00;11.40;;;;;;;10.92;82.51;100390.52;126273;1317;114862;-69
2024/02/21 12:56:34;;;;;;;;;;;;;;;;;;;;;
2024/02/21 13:00:27;;;;;;;12.40;8.80;;;;;;;10.89;82.29;100384.64;125367;1308;114874;-71
2024/02/21 13:07:34;;;;;;;;;;;;;;;;;;;;;
2024/02/21 13:15:55;;;;;;;9.70;6.00;;;;;;;10.86;82.15;100366.19;126479;1295;639499;-70
2024/02/21 13:19:57;;;;;;;10.60;5.90;;;;;;;10.77;81.95;100363.20;127623;1304;128629;-71
2024/02/21 13:23:58;;;;;;;8.20;5.40;;;;;;;10.76;82.39;100359.67;126836;1309;115193;-70
2024/02/21 13:28:05;;;;;;;9.30;5.40;;;;;;;10.80;81.87;100353.64;122277;1317;5434233;-70
2024/02/21 13:31:22;;;;;;;17.50;10.40;;;;;;;10.83;81.64;100346.17;124319;1315;114919;-70
2024/02/21 13:35:13;;;;;;;20.10;10.80;;;;;;;10.83;81.66;100341.84;124233;1332;115219;-70
2024/02/21 13:38:19;;;;;;;15.20;9.50;;;;;;;10.86;81.29;100337.26;124221;1326;114990;-69
2024/02/21 13:42:19;;;;;;;;;;;;;;;;;;;;;
2024/02/21 13:46:03;;;;;;;12.40;5.60;;;;;;;10.88;80.93;100333.20;124313;1318;115018;-70
2024/02/21 13:54:24;;;;;;;9.00;5.30;;;;;;;11.00;81.44;100317.94;125928;1299;641053;-70
2024/02/21 13:58:19;;;;;;;;;;;;;;;;;;;;;
2024/02/21 14:02:13;;;;;;;10.80;5.00;;;;;;;10.99;80.90;100309.80;127917;1283;114787;-71
2024/02/21 14:06:06;;;;;;;14.30;8.40;;;;;;;11.05;81.29;100301.95;127788;1280;114911;-70
2024/02/21 14:09:44;;;;;;;;;;;;;;;;;;;;;
2024/02/21 14:13:18;;;;;;;;;;;;;;;;;;;;;
2024/02/21 14:16:54;;;;;;;7.60;3.60;;;;;;;11.16;80.92;100287.46;126257;1293;114954;-70
2024/02/21 14:20:23;;;;;;;8.30;4.40;;;;;;;11.22;80.19;100278.00;126593;1293;635877;-70
2024/02/21 14:23:33;;;;;;;7.20;3.60;;;;;;;11.22;79.67;100278.20;129334;1272;128258;-68
2024/02/21 14:26:35;;;;;;;9.00;4.20;;;;;;;11.25;79.87;100285.55;129388;1282;114798;-69
2024/02/21 14:29:42;;;;;;;8.10;4.50;;;;;;;11.25;79.69;100283.58;129336;1270;114801;-70
2024/02/21 14:32:45;;;;;;;8.40;4.30;;;;;;;11.28;80.06;100285.97;129141;1270;374902;-70
2024/02/21 14:35:54;;;;;;;9.20;4.90;;;;;;;11.28;79.45;100279.16;129580;1268;114741;-69
2024/02/21 14:38:58;;;;;;;15.60;9.10;;;;;;;11.28;79.50;100278.42;130279;1259;128742;-69
2024/02/21 14:42:25;;;;;;;;;;;;;;;;;;;;;
2024/02/21 14:45:38;;;;;;;9.70;6.00;;;;;;;11.28;79.86;100273.28;130144;1262;114824;-70
2024/02/21 14:49:13;;;;;;;10.80;5.20;;;;;;;11.26;79.43;100269.78;130287;1258;114741;-69
2024/02/21 14:52:58;;;;;;;8.00;4.80;;;;;;;11.21;78.44;100269.51;130095;1259;114818;-70
2024/02/21 14:56:09;;;;;;;11.60;5.90;;;;;;;11.16;79.08;100265.46;130182;1255;127905;-69
2024/02/21 14:59:49;;;;;;;11.10;5.10;;;;;;;11.13;79.00;100262.95;129995;1259;114909;-69
2024/02/21 15:03:55;;;;;;;11.30;5.20;;;;;;;11.09;79.00;100262.45;129470;1268;114735;-69
2024/02/21 15:07:55;;;;;;;;;;;;;;;;;;;;;
2024/02/21 15:16:19;;;;;;;9.60;5.00;;;;;;;11.02;78.98;100245.48;126627;1305;635634;-69
2024/02/21 15:20:15;;;;;;;11.70;8.10;;;;;;;10.94;79.06;100243.89;129733;1266;128586;-69
2024/02/21 15:24:16;;;;;;;15.10;9.30;;;;;;;10.90;79.19;100243.60;128772;1293;114830;-69
2024/02/21 15:28:23;;;;;;;;;;;;;;;;;;;;;
2024/02/21 15:32:39;;;;;;;;;;;;;;;;;;;;;
2024/02/21 15:36:40;;;;;;;17.10;10.70;;;;;;;10.77;79.43;100231.74;125821;1304;114950;-69
2024/02/21 15:40:27;;;;;;;30.10;14.70;;;;;;;10.72;79.12;100227.73;125678;1319;114968;-70
2024/02/21 15:44:28;;;;;;;30.30;16.30;;;;;;;10.64;79.07;100224.35;125504;1324;129628;-69
2024/02/21 15:52:39;;;;;;;22.60;12.30;;;;;;;10.49;79.13;100222.80;126341;1296;638694;-68
2024/02/21 15:56:27;;;;;;;21.80;9.60;;;;;;;10.39;79.31;100216.87;128248;1297;128777;-70
2024/02/21 16:00:01;;;;;;;;;;;;;;;;;;;;;
2024/02/21 16:03:42;;;;;;;;;;;;;;;;;;;;;
2024/02/21 16:07:46;;;;;;;17.50;8.10;;;;;;;10.12;79.20;100211.76;123979;1286;114801;-68
2024/02/21 16:11:52;;;;;;;;;;;;;;;;;;;;;
2024/02/21 16:15:57;;;;;;;16.50;9.40;;;;;;;9.97;79.73;100207.13;127703;1302;114803;-70
2024/02/21 16:19:56;;;;;;;;;;;;;;;;;;;;;
2024/02/21 16:23:50;;;;;;;19.70;8.70;;;;;;;9.81;79.55;100211.08;125904;1298;115002;-70
2024/02/21 16:27:41;;;;;;;24.00;10.90;;;;;;;9.74;79.60;100212.33;125804;1303;114945;-70
2024/02/21 16:31:40;;;;;;;27.40;14.80;;;;;;;9.68;79.90;100213.67;125671;1316;115695;-70
2024/02/21 16:35:34;;;;;;;;;;;;;;;;;;;;;
2024/02/21 16:44:11;;;;;;;46.90;22.00;;;;;;;9.58;79.88;100213.24;126071;1299;640509;-70
2024/02/21 16:48:14;;;;;;;19.30;10.40;;;;;;;9.52;79.75;100209.09;127628;1304;128919;-70
2024/02/21 16:52:15;;;;;;;;;;;;;;;;;;;;;
2024/02/21 16:56:14;;;;;;;26.30;14.10;;;;;;;9.34;79.48;100196.35;122159;1300;5414877;-68
2024/02/21 17:00:36;;;;;;;25.80;14.30;;;;;;;9.24;79.60;100198.93;125137;1314;114923;-70
2024/02/21 17:08:31;;;;;;;29.00;15.90;;;;;;;9.08;79.61;100187.01;126660;1294;636301;-69
2024/02/21 17:12:06;;;;;;;35.90;17.00;;;;;;;8.91;79.45;100187.22;128884;1284;128987;-70
2024/02/21 17:15:46;;;;;;;47.00;22.80;;;;;;;8.77;79.40;100182.17;128843;1274;114862;-68
2024/02/21 17:19:18;;;;;;;;;;;;;;;;;;;;;
2024/02/21 17:23:22;;;;;;;35.10;19.00;;;;;;;8.44;79.52;100184.59;123760;1287;114836;-69
2024/02/21 17:26:48;;;;;;;;;;;;;;;;;;;;;
2024/02/21 17:30:52;;;;;;;21.60;13.20;;;;;;;8.13;79.48;100173.42;127500;1287;114957;-69
2024/02/21 17:34:53;;;;;;;21.70;13.10;;;;;;;7.95;79.62;100165.27;126196;1298;129749;-70
2024/02/21 17:38:54;;;;;;;21.40;13.60;;;;;;;7.77;79.80;100160.66;125913;1299;114930;-70
2024/02/21 17:42:54;;;;;;;14.00;8.30;;;;;;;7.60;79.87;100154.75;125454;1308;114937;-70
2024/02/21 17:46:45;;;;;;;;;;;;;;;;;;;;;
2024/02/21 17:50:43;;;;;;;16.00;9.60;;;;;;;7.32;80.23;100140.40;124973;1322;114996;-69
2024/02/21 17:54:44;;;;;;;;;;;;;;;;;;;;;
2024/02/21 17:58:35;;;;;;;19.70;10.00;;;;;;;7.02;80.47;100132.80;125089;1310;115038;-69
2024/02/21 18:02:37;;;;;;;16.50;8.90;;;;;;;6.90;80.68;100127.95;125867;1319;114870;-69
2024/02/21 18:06:38;;;;;;;18.60;9.00;;;;;;;6.78;81.31;100125.34;126345;1315;114837;-69
2024/02/21 18:10:40;;;;;;;19.80;9.60;;;;;;;6.66;81.50;100118.52;125465;1307;115055;-69
2024/02/21 18:14:15;;;;;;;21.00;10.40;;;;;;;6.54;81.72;100112.91;125874;1300;129863;-70
2024/02/21 18:18:04;;;;;;;;;;;;;;;;;;;;;
2024/02/21 18:21:37;;;;;;;21.70;10.70;;;;;;;6.35;82.13;100101.69;125499;1304;115099;-70
2024/02/21 18:25:30;;;;;;;;;;;;;;;;;;;;;
2024/02/21 18:33:44;;;;;;;24.60;11.80;;;;;;;6.15;82.44;100088.77;125965;1301;637590;-69
2024/02/21 18:37:36;;;;;;;;;;;;;;;;;;;;;
2024/02/21 18:41:07;;;;;;;;;;;;;;;;;;;;;
2024/02/21 18:45:00;;;;;;;;;;;;;;;;;;;;;
2024/02/21 18:48:56;;;;;;;26.30;14.60;;;;;;;5.80;83.29;100082.45;125161;1289;114989;-70
2024/02/21 18:52:55;;;;;;;;;;;;;;;;;;;;;
2024/02/21 18:56:29;;;;;;;;;;;;;;;;;;;;;
2024/02/21 19:00:30;;;;;;;19.70;10.80;;;;;;;5.60;83.80;100071.94;125423;1308;129922;-69
2024/02/21 19:04:24;;;;;;;;;;;;;;;;;;;;;
2024/02/21 19:07:29;;;;;;;22.70;12.80;;;;;;;5.46;84.32;100067.08;123675;1325;115023;-69
2024/02/21 19:10:51;;;;;;;22.40;11.80;;;;;;;5.41;84.37;100064.55;123731;1336;114875;-69
2024/02/21 19:14:42;;;;;;;33.00;15.60;;;;;;;5.36;84.29;100062.96;124431;1330;114916;-69
2024/02/21 19:17:45;;;;;;;31.20;17.70;;;;;;;5.31;84.60;100055.14;124727;1313;128195;-70
2024/02/21 19:21:36;;;;;;;56.20;25.60;;;;;;;5.27;84.54;100049.44;124634;1320;114864;-70
2024/02/21 19:25:16;;;;;;;;;;;;;;;;;;;;;
2024/02/21 19:28:29;;;;;;;27.30;14.50;;;;;;;5.15;84.96;100043.07;125255;1310;114970;-70
2024/02/21 19:32:20;;;;;;;;;;;;;;;;;;;;;
2024/02/21 19:36:22;;;;;;;24.60;11.30;;;;;;;5.07;85.21;100026.86;126049;1317;128230;-70
2024/02/21 19:40:25;;;;;;;31.40;18.20;;;;;;;5.03;85.51;100020.08;125827;1314;114984;-69
2024/02/21 19:44:25;;;;;;;29.10;15.00;;;;;;;5.00;85.61;100016.29;126119;1295;114948;-69
2024/02/21 19:48:24;;;;;;;;;;;;;;;;;;;;;
2024/02/21 19:52:27;;;;;;;23.10;13.20;;;;;;;4.94;85.93;100016.11;125262;1307;115265;-69
2024/02/21 19:56:21;;;;;;;27.40;14.80;;;;;;;4.93;85.86;100012.08;124649;1313;130073;-70
2024/02/21 20:00:10;;;;;;;;;;;;;;;;;;;;;
2024/02/21 20:03:36;;;;;;;23.90;12.60;;;;;;;4.89;86.30;100004.93;124407;1314;114912;-69
2024/02/21 20:11:40;;;;;;;;;;;;;;;;;;;;;
2024/02/21 20:15:44;;;;;;;27.60;13.60;;;;;;;4.83;86.39;99981.42;128943;1291;128574;-68
2024/02/21 20:19:46;;;;;;;;;;;;;;;;;;;;;
2024/02/21 20:23:54;;;;;;;17.30;10.20;;;;;;;4.76;86.49;99961.30;123356;1298;5423151;-68
2024/02/21 20:27:55;;;;;;;24.10;13.70;;;;;;;4.73;86.66;99954.83;125370;1320;114974;-70
2024/02/21 20:36:16;;;;;;;21.80;10.70;;;;;;;4.72;86.95;99941.61;126744;1296;635552;-69
2024/02/21 20:40:06;;;;;;;23.80;11.30;;;;;;;4.70;87.19;99936.55;128762;1275;127241;-68
2024/02/21 20:43:42;;;;;;;;;;;;;;;;;;;;;
2024/02/21 20:47:46;;;;;;;17.60;10.20;;;;;;;4.70;87.31;99923.62;128436;1296;114902;-70
2024/02/21 20:51:48;;;;;;;17.10;10.00;;;;;;;4.70;87.54;99911.77;123605;1284;114825;-69
2024/02/21 20:55:50;;;;;;;17.90;10.00;;;;;;;4.70;87.58;99903.63;125734;1302;114935;-69
2024/02/21 21:04:00;;;;;;;18.20;8.70;;;;;;;4.79;87.97;99885.13;126631;1297;636022;-70
2024/02/21 21:07:32;;;;;;;;;;;;;;;;;;;;;
2024/02/21 21:11:29;;;;;;;18.80;9.90;;;;;;;4.83;88.03;99874.91;127580;1284;115081;-70
2024/02/21 21:14:45;;;;;;;17.30;8.10;;;;;;;4.86;88.00;99864.56;127251;1298;114840;-70
2024/02/21 21:22:50;;;;;;;18.00;9.30;;;;;;;4.89;88.08;99852.42;126306;1301;114922;-69
2024/02/21 21:26:44;;;;;;;22.90;12.40;;;;;;;4.90;88.03;99844.27;124953;1310;129746;-70
2024/02/21 21:30:46;;;;;;;16.70;10.00;;;;;;;4.89;88.00;99839.16;123835;1319;115184;-70
2024/02/21 21:39:06;;;;;;;22.30;13.90;;;;;;;4.81;87.77;99822.95;126612;1297;636189;-70
2024/02/21 21:47:19;;;;;;;20.90;10.50;;;;;;;4.68;87.88;99812.95;127803;1284;115289;-69
2024/02/21 21:51:15;;;;;;;;;;;;;;;;;;;;;
2024/02/21 21:55:17;;;;;;;17.50;8.60;;;;;;;4.61;87.88;99803.65;125743;1317;114964;-69
2024/02/21 21:59:19;;;;;;;20.30;11.00;;;;;;;4.57;88.12;99793.86;125841;1304;114993;-69
2024/02/21 22:23:53;;;;;;;15.40;8.70;;;;;;;4.47;89.08;99750.34;122480;1296;5474280;-67
2024/02/21 22:27:54;;;;;;;9.60;5.60;;;;;;;4.48;88.97;99745.16;125230;1308;114850;-66
2024/02/21 22:31:44;;;;;;;;;;;;;;;;;;;;;
2024/02/21 22:40:07;;;;;;;15.80;8.50;;;;;;;4.59;89.51;99736.13;126711;1295;635917;-67
2024/02/21 22:48:12;;;;;;;13.40;6.60;;;;;;;4.68;89.86;99724.30;127750;1285;115013;-67
2024/02/21 22:52:15;;;;;;;11.90;6.40;;;;;;;4.78;89.91;99724.71;122999;1289;5411316;-67
2024/02/21 22:56:16;;;;;;;15.90;7.00;;;;;;;4.86;90.01;99721.40;125478;1307;114933;-67
2024/02/21 23:00:17;;;;;;;11.40;4.80;;;;;;;4.94;89.92;99715.27;124064;1319;115069;-67
2024/02/21 23:04:16;;;;;;;;;;;;;;;;;;;;;
2024/02/21 23:08:04;;;;;;;11.30;5.40;;;;;;;5.12;89.97;99704.56;122898;1330;130877;-68
2024/02/21 23:12:30;;;;;;;12.70;6.80;;;;;;;5.22;89.96;99700.12;127089;1285;637100;-68
2024/02/21 23:16:31;;;;;;;12.30;6.20;;;;;;;5.26;89.83;99695.17;128919;1270;128660;-69
2024/02/21 23:20:31;;;;;;;;;;;;;;;;;;;;;
2024/02/21 23:24:44;;;;;;;10.40;5.10;;;;;;;5.37;89.56;99689.83;122428;1319;5413613;-69
2024/02/21 23:28:44;;;;;;;11.40;5.20;;;;;;;5.42;89.56;99688.23;125271;1307;115456;-69
2024/02/21 23:37:09;;;;;;;14.10;5.60;;;;;;;5.51;89.54;99659.52;126624;1295;635683;-69
2024/02/21 23:41:11;;;;;;;10.00;5.70;;;;;;;5.55;89.50;99665.59;127865;1284;127465;-68
2024/02/21 23:45:12;;;;;;;8.40;5.00;;;;;;;5.59;89.42;99661.16;126167;1315;114744;-69
2024/02/21 23:49:17;;;;;;;16.40;4.20;;;;;;;5.62;89.12;99658.56;122491;1299;5489741;-68
2024/02/21 23:53:19;;;;;;;8.80;4.40;;;;;;;5.65;89.03;99652.95;126208;1296;114871;-68
2024/02/21 23:57:12;;;;;;;10.80;4.80;;;;;;;5.67;88.85;99649.00;125448;1304;115761;-68
